Terminal Aerodrome Forecast
Issued by NWS Springfield, MO

Home | Current Version | Previous Version | Text Only | Print | Product List | Glossary On
Versions: 1 2 3 4 5 6 7 8 9 10 11 12 13 14 15 16 17 18 19
000
FTUS43 KSGF 241700
TAFSGF
TAF
KSGF 241720Z 2418/2518 16017G25KT P6SM SCT080 OVC110
     FM242200 21015G22KT 3SM -TSRA OVC020CB
     FM250000 29014KT P6SM SCT050 BKN100
     FM250300 30008KT P6SM SKC=

USA.gov is the U.S. government's official web portal to all federal, state and local government web resources and services.